Irbid, Jordan

1:02 AM EEST on May 07, 2015 (GMT +0300)
Marka International | | Change Station
CLOSE
Current Station
Airport
Location: Amman,
Elevation: 2556 ft
Nearby Weather Stations

Elev 2556 ft 31.97 °N, 35.99 °E | Updated 1 hour ago

Haze
Haze
70 °F
Feels Like 70 °F
N
0
Wind Variable Wind from North

Today
High -- | Low -- °F
--% Chance of Precip.
Yesterday
High -- | Low -- °F
Precip. -- in
5:44 AM 7:21 PM
Waning Gibbous, 92% visible
Pressure 29.86 in
Visibility 3.1 miles
Clouds
Dew Point 36 °F
Humidity 28%
Rainfall 0.00 in
Snow Depth Not available.
UV Not available.
Pollen Not available.
Air Quality Not available.
Flu Activity Not available.
METAR OJAM 062100Z 00000KT 5000 HZ NSC 21/02 Q1011 NOSIG

More Conditions Fewer Conditions

Pressure 29.86 in
Visibility 3.1 miles
Clouds
Dew Point 36 °F
Humidity 28%
Rainfall 0.00 in
Snow Depth Not available.
UV Not available.
Pollen Not available.
Air Quality Not available.
Flu Activity Not available.
METAR OJAM 062100Z 00000KT 5000 HZ NSC 21/02 Q1011 NOSIG

More Conditions Fewer Conditions

10-Day Weather Forecast

Almanac

Astronomy

May. 07, 2015 Rise Set
Actual Time
Civil Twilight
Nautical Twilight
Astronomical Twilight
Moon
Length of Visible Light
Length of Day
Tomorrow will be .
, % of the Moon is Illuminated

Today's Extremes

Country Highs Country Lows

Community

WunderPhotos

Upload Photos

1,819,026 photos uploaded!

WunderBlogs® & News

Nearby

Air Quality

  Air Quality AQ Index Pollutant
Not available.

Snow Depth

Station Depth Elevation

Earthquake Activity

City Distance Mag. Time & Date
Minimum magnitude displayed is 2.5.

Coastal Water Temperatures

Place Temperature

Stations

Nearby Weather Stations

Station Location Temp. Windchill Dew Point Humidity Wind Precip. Elev Updated Type